WPDL Información de aeropuertos

Información de pistas
Pista 08 Longitud 6065 ft Ancho 98 ft
Elevación 17 ft Umbral 201 ft Rumbo 77
Pista 26 Longitud 6065 ft Ancho 98 ft
Elevación 25 ft Umbral 0 ft Rumbo 257
Frecuencias
Tipo APP Nombre COMORO APP Frequencia 122.9 MHZ
Tipo GND Nombre COMORO GND Frequencia 133.9 MHZ
Tipo MISC Nombre PCL Frequencia 125.5 MHZ
Radioayudas
Tipo VOR-DME Nombre Dili Frequencia 113400 KHZ
Tipo NDB Nombre Dili Frequencia 391 KHZ
Información meteorológica y NOTAM
ADDS - METARS form results

(1551 UTC 02 December 2021)
Data provider http://aviationweather.gov/metar/data/
 
Forecast for: WPDL (DILLI ARPT/TIMOR, TP)
Text: TAF WPDL 021113Z 0212/0300 15006KT 9999 SCT030
Forecast period: 1200 UTC 02 December 2021 to 0000 UTC 03 December 2021
Forecast type: FROM: standard forecast or significant change
Winds: from the SSE (150 degrees) at 7 MPH (6 knots; 3.1 m/s)
Visibility: 6 or more miles (10+ km)
Ceiling: at least 12,000 feet AGL
Clouds: scattered clouds at 3000 feet AGL
Weather: no significant weather forecast for this period